Terminal Aerodrome Forecast
Issued by NWS Amarillo, TX

Home | Current Version | Previous Version | Text Only | Print | Product List | Glossary On
Versions: 1 2 3 4 5 6 7 8 9 10 11 12 13 14 15 16 17
355
FTUS44 KAMA 302338
TAFGUY
TAF
KGUY 302338Z 3100/3124 12008KT P6SM BKN300
     FM310800 11010KT 4SM BR SCT006 OVC010
     FM311600 11018G28KT P6SM OVC300=

USA.gov is the U.S. government's official web portal to all federal, state and local government web resources and services.